Time;durP1;ratioP1;P1;durP2;ratioP2;P2;SDS_P1;SDS_P2;PMS_P1;PMS_P2;Temp;Humidity;BMP_temperature;BMP_pressure;BME280_temperature;BME280_humidity;BME280_pressure;Samples;Min_cycle;Max_cycle;Signal;HPM_P1;HPM_P2
2021/12/22 00:01:55;;;;;;;38.33;19.30;;;1.30;99.90;;;;;;4953970;29;20043;-67
2021/12/22 00:04:23;;;;;;;41.20;20.20;;;1.20;99.90;;;;;;4954420;29;20024;-66
2021/12/22 00:06:49;;;;;;;35.75;18.23;;;1.20;99.90;;;;;;4954274;29;20046;-66
2021/12/22 00:09:15;;;;;;;37.45;18.42;;;1.20;99.90;;;;;;4954381;29;20395;-67
2021/12/22 00:11:41;;;;;;;36.08;19.23;;;1.20;99.90;;;;;;4953327;29;20517;-67
2021/12/22 00:14:07;;;;;;;42.33;19.48;;;1.20;99.90;;;;;;4954056;29;20034;-68
2021/12/22 00:16:32;;;;;;;40.42;19.33;;;1.20;99.90;;;;;;4954555;29;20028;-69
2021/12/22 00:18:58;;;;;;;40.03;19.65;;;1.10;99.90;;;;;;4954119;29;20024;-65
2021/12/22 00:21:24;;;;;;;36.58;19.50;;;1.10;99.90;;;;;;4954273;29;20059;-68
2021/12/22 00:23:49;;;;;;;39.33;18.23;;;1.10;99.90;;;;;;4954496;29;20034;-66
2021/12/22 00:26:15;;;;;;;38.97;19.42;;;1.10;99.90;;;;;;4954123;29;20087;-66
2021/12/22 00:28:41;;;;;;;41.70;20.15;;;1.00;99.90;;;;;;4953233;29;20082;-67
2021/12/22 00:31:13;;;;;;;38.40;20.15;;;1.00;99.90;;;;;;4954404;29;20053;-67
2021/12/22 00:33:47;;;;;;;44.27;19.37;;;1.00;99.90;;;;;;4954498;29;20542;-68
2021/12/22 00:36:14;;;;;;;39.58;19.33;;;1.00;99.90;;;;;;4954193;29;20352;-67
2021/12/22 00:38:40;;;;;;;41.70;19.40;;;1.00;99.90;;;;;;4954253;29;20035;-67
2021/12/22 00:41:06;;;;;;;42.00;20.75;;;0.90;99.90;;;;;;4954368;29;20039;-67
2021/12/22 00:43:31;;;;;;;45.13;20.10;;;1.00;99.90;;;;;;4954178;29;20083;-66
2021/12/22 00:45:57;;;;;;;38.75;20.13;;;0.90;99.90;;;;;;4954297;29;20487;-66
2021/12/22 00:48:23;;;;;;;42.45;20.33;;;0.90;99.90;;;;;;4954097;29;20035;-66
2021/12/22 00:50:49;;;;;;;39.00;19.98;;;0.90;99.90;;;;;;4954068;29;20024;-67
2021/12/22 00:53:15;;;;;;;41.88;20.27;;;0.90;99.90;;;;;;4953685;29;20497;-65
2021/12/22 00:55:41;;;;;;;39.75;20.50;;;0.90;99.90;;;;;;4935899;29;20040;-65
2021/12/22 00:58:06;;;;;;;43.13;20.63;;;0.90;99.90;;;;;;4953649;29;20040;-66
2021/12/22 01:00:33;;;;;;;39.13;20.40;;;0.80;99.90;;;;;;4953589;28;20081;-66
2021/12/22 01:02:59;;;;;;;41.33;19.95;;;0.80;99.90;;;;;;4953660;29;20023;-68
2021/12/22 01:05:25;;;;;;;41.40;20.77;;;0.80;99.90;;;;;;4953538;28;20372;-65
2021/12/22 01:07:51;;;;;;;41.95;21.13;;;0.80;99.90;;;;;;4953530;29;20102;-67
2021/12/22 01:10:28;;;;;;;41.88;20.67;;;0.80;99.90;;;;;;4955123;28;20114;-65
2021/12/22 01:12:56;;;;;;;44.53;20.65;;;0.70;99.90;;;;;;4956957;29;20126;-67
2021/12/22 01:15:24;;;;;;;43.03;20.02;;;0.70;99.90;;;;;;4957096;28;20035;-68
2021/12/22 01:17:57;;;;;;;48.05;20.83;;;0.80;99.90;;;;;;4957310;29;20042;-68
2021/12/22 01:20:29;;;;;;;42.70;20.85;;;0.80;99.90;;;;;;4956548;28;20023;-68
2021/12/22 01:23:02;;;;;;;38.42;18.92;;;0.80;99.90;;;;;;4957429;29;20460;-67
2021/12/22 01:25:30;;;;;;;39.72;19.08;;;0.70;99.90;;;;;;4957374;29;20027;-68
2021/12/22 01:27:56;;;;;;;38.97;19.50;;;0.70;99.90;;;;;;4957274;29;20595;-66
2021/12/22 01:30:26;;;;;;;42.22;19.67;;;0.70;99.90;;;;;;4957211;29;20106;-66
2021/12/22 01:32:54;;;;;;;39.38;19.92;;;0.70;99.90;;;;;;4956867;29;20059;-66
2021/12/22 01:35:24;;;;;;;39.80;19.27;;;0.70;99.90;;;;;;4956314;28;20100;-67
2021/12/22 01:37:51;;;;;;;42.15;20.45;;;0.70;99.90;;;;;;4956260;29;20027;-67
2021/12/22 01:40:17;;;;;;;44.20;18.30;;;0.70;99.90;;;;;;4956473;28;20027;-66
2021/12/22 01:42:44;;;;;;;40.63;19.05;;;0.70;99.90;;;;;;4956752;29;20039;-67
2021/12/22 01:45:46;;;;;;;43.67;20.33;;;0.70;99.90;;;;;;4956668;28;20035;-66
2021/12/22 01:51:03;;;;;;;40.17;18.70;;;0.70;99.90;;;;;;4956350;28;19917;-66
2021/12/22 01:53:31;;;;;;;41.40;19.73;;;0.60;99.90;;;;;;4968691;28;20047;-65
2021/12/22 01:56:06;;;;;;;39.30;19.77;;;0.60;99.90;;;;;;4956189;28;20023;-66
2021/12/22 01:58:41;;;;;;;41.83;20.35;;;0.60;99.90;;;;;;4956360;29;20039;-68
2021/12/22 02:01:07;;;;;;;43.97;19.80;;;0.60;99.90;;;;;;4956408;28;20546;-66
2021/12/22 02:03:33;;;;;;;45.63;20.02;;;0.60;99.90;;;;;;4954372;28;20031;-67
2021/12/22 02:05:59;;;;;;;44.25;20.35;;;0.60;99.90;;;;;;4955732;28;20027;-67
2021/12/22 02:08:25;;;;;;;42.88;19.67;;;0.60;99.90;;;;;;4956220;29;20039;-65
2021/12/22 02:10:50;;;;;;;42.78;20.55;;;0.60;99.90;;;;;;4955825;28;20035;-68
2021/12/22 02:13:23;;;;;;;46.10;21.08;;;0.60;99.90;;;;;;4955750;29;20050;-67
2021/12/22 02:15:49;;;;;;;42.88;20.33;;;0.60;99.90;;;;;;4955948;28;20118;-67
2021/12/22 02:18:19;;;;;;;45.03;20.92;;;0.60;99.90;;;;;;4956097;29;20436;-66
2021/12/22 02:20:49;;;;;;;41.58;19.63;;;0.60;99.90;;;;;;4955266;28;20027;-67
2021/12/22 02:23:16;;;;;;;42.80;20.30;;;0.60;99.90;;;;;;4955887;29;20542;-67
2021/12/22 02:25:50;;;;;;;40.83;20.77;;;0.60;99.90;;;;;;4955810;28;20067;-67
2021/12/22 02:28:21;;;;;;;44.35;21.45;;;0.60;99.90;;;;;;4956052;29;20031;-67
2021/12/22 02:30:47;;;;;;;39.23;18.73;;;0.60;99.90;;;;;;4955808;28;20103;-66
2021/12/22 02:33:34;;;;;;;44.15;20.77;;;0.60;99.90;;;;;;4955193;29;20110;-66
2021/12/22 02:38:39;;;;;;;39.38;19.15;;;0.50;99.90;;;;;;4955596;29;20024;-66
2021/12/22 02:41:08;;;;;;;44.08;21.10;;;0.50;99.90;;;;;;4955429;28;20039;-65
2021/12/22 02:43:42;;;;;;;44.67;21.60;;;0.50;99.90;;;;;;4955075;29;20031;-66
2021/12/22 02:46:08;;;;;;;52.40;21.88;;;0.50;99.90;;;;;;4955352;28;20506;-67
2021/12/22 02:48:33;;;;;;;49.30;19.98;;;0.50;99.90;;;;;;4955149;29;20028;-67
2021/12/22 02:51:01;;;;;;;40.80;19.60;;;0.50;99.90;;;;;;4955226;28;20031;-66
2021/12/22 02:53:38;;;;;;;44.65;20.23;;;0.50;99.90;;;;;;4955194;29;20487;-67
2021/12/22 02:56:24;;;;;;;45.20;20.63;;;0.50;99.90;;;;;;4954759;28;20035;-66
2021/12/22 02:59:12;;;;;;;47.90;20.77;;;0.50;99.90;;;;;;4954999;29;20047;-68
2021/12/22 03:02:27;;;;;;;40.58;19.27;;;0.50;99.90;;;;;;4950042;29;20027;-68
2021/12/22 03:04:31;;;;;;;42.53;20.70;;;0.50;99.90;;;;;;4949033;28;20036;-67
2021/12/22 03:07:09;;;;;;;49.38;20.90;;;0.50;99.90;;;;;;4955110;29;20034;-67
2021/12/22 03:09:37;;;;;;;43.63;20.67;;;0.50;99.90;;;;;;4955513;29;20027;-67
2021/12/22 03:12:05;;;;;;;45.63;21.30;;;0.50;99.90;;;;;;4955261;29;20126;-67
2021/12/22 03:14:31;;;;;;;44.78;20.45;;;0.40;99.90;;;;;;4955167;29;20031;-66
2021/12/22 03:16:58;;;;;;;45.85;20.85;;;0.40;99.90;;;;;;4954985;29;20031;-67
2021/12/22 03:19:29;;;;;;;40.78;20.27;;;0.40;99.90;;;;;;4955397;28;20073;-67
2021/12/22 03:22:02;;;;;;;42.35;20.52;;;0.50;99.90;;;;;;4955597;29;20032;-68
2021/12/22 03:24:28;;;;;;;45.58;19.33;;;0.40;99.90;;;;;;4955278;29;20034;-67
2021/12/22 03:26:55;;;;;;;46.08;19.42;;;0.40;99.90;;;;;;4955122;29;20063;-67
2021/12/22 03:29:21;;;;;;;41.33;19.88;;;0.40;99.90;;;;;;4955104;29;20106;-67
2021/12/22 03:31:48;;;;;;;39.65;20.30;;;0.40;99.90;;;;;;4954761;28;20062;-67
2021/12/22 03:34:14;;;;;;;43.22;19.58;;;0.40;99.90;;;;;;4954651;29;20053;-68
2021/12/22 03:36:42;;;;;;;45.90;22.70;;;0.40;99.90;;;;;;4954924;29;20019;-67
2021/12/22 03:39:09;;;;;;;42.38;20.77;;;0.40;99.90;;;;;;4954830;28;20043;-66
2021/12/22 03:41:35;;;;;;;47.30;21.02;;;0.40;99.90;;;;;;4954853;29;20027;-67
2021/12/22 03:44:05;;;;;;;46.40;20.30;;;0.40;99.90;;;;;;4954455;29;20027;-67
2021/12/22 03:46:31;;;;;;;47.13;20.65;;;0.40;99.90;;;;;;4954683;29;20033;-67
2021/12/22 03:48:58;;;;;;;40.08;19.63;;;0.40;99.90;;;;;;4955059;29;20106;-67
2021/12/22 03:51:27;;;;;;;46.85;20.65;;;0.40;99.90;;;;;;4954898;29;20035;-66
2021/12/22 03:53:53;;;;;;;48.72;20.92;;;0.40;99.90;;;;;;4954558;29;20044;-66
2021/12/22 03:56:19;;;;;;;46.03;21.70;;;0.40;99.90;;;;;;4954558;29;20043;-67
2021/12/22 03:58:45;;;;;;;47.85;20.90;;;0.40;99.90;;;;;;4954392;28;20495;-67
2021/12/22 04:01:11;;;;;;;49.53;20.98;;;0.40;99.90;;;;;;4953361;29;20034;-66
2021/12/22 04:03:38;;;;;;;45.47;22.33;;;0.40;99.90;;;;;;4954514;29;20024;-67
2021/12/22 04:06:04;;;;;;;48.08;21.73;;;0.40;99.90;;;;;;4954389;28;20502;-66
2021/12/22 04:08:31;;;;;;;487.92;69.63;;;0.40;99.90;;;;;;4954555;28;20034;-67
2021/12/22 04:10:56;;;;;;;43.85;21.60;;;0.40;99.90;;;;;;4954292;29;20042;-67
2021/12/22 04:13:22;;;;;;;48.95;21.80;;;0.40;99.90;;;;;;4954124;29;20043;-66
2021/12/22 04:15:48;;;;;;;52.10;21.63;;;0.40;99.90;;;;;;4954819;29;20469;-67
2021/12/22 04:18:14;;;;;;;69.28;24.58;;;0.40;99.90;;;;;;4954259;29;20023;-67
2021/12/22 04:20:40;;;;;;;94.18;26.25;;;0.40;99.90;;;;;;4954790;29;20046;-66
2021/12/22 04:23:07;;;;;;;53.92;22.25;;;0.40;99.90;;;;;;4954259;29;20031;-67
2021/12/22 04:25:34;;;;;;;49.88;22.38;;;0.50;99.90;;;;;;4954155;28;20031;-67
2021/12/22 04:28:04;;;;;;;53.10;23.17;;;0.50;99.90;;;;;;4954265;29;20032;-67
2021/12/22 04:30:32;;;;;;;53.80;23.15;;;0.50;99.90;;;;;;4954516;29;20176;-68
2021/12/22 04:32:59;;;;;;;52.78;21.85;;;0.50;99.90;;;;;;4954295;28;20047;-67
2021/12/22 04:35:25;;;;;;;51.95;21.75;;;0.50;99.90;;;;;;4954232;29;20032;-66
2021/12/22 04:37:50;;;;;;;48.50;20.95;;;0.50;99.90;;;;;;4954449;29;20038;-68
2021/12/22 04:40:16;;;;;;;134.25;29.05;;;0.50;99.90;;;;;;4953971;29;20549;-67
2021/12/22 04:42:43;;;;;;;47.85;20.63;;;0.50;99.90;;;;;;4952867;29;20024;-67
2021/12/22 04:45:10;;;;;;;48.72;20.65;;;0.50;99.90;;;;;;4957167;28;20023;-67
2021/12/22 04:47:36;;;;;;;46.33;19.50;;;0.50;99.90;;;;;;4958056;29;20036;-67
2021/12/22 04:50:09;;;;;;;45.88;20.52;;;0.40;99.90;;;;;;4957776;29;20073;-67
2021/12/22 04:52:43;;;;;;;98.07;23.88;;;0.40;99.90;;;;;;4957715;29;20039;-67
2021/12/22 04:55:09;;;;;;;41.83;19.88;;;0.40;99.90;;;;;;4957942;28;20039;-67
2021/12/22 04:57:35;;;;;;;39.00;18.55;;;0.40;99.90;;;;;;4957796;29;20035;-67
2021/12/22 05:00:04;;;;;;;42.97;18.15;;;0.40;99.90;;;;;;4957390;29;20147;-67
2021/12/22 05:02:30;;;;;;;39.75;18.05;;;0.40;99.90;;;;;;4957388;29;20039;-67
2021/12/22 05:04:55;;;;;;;46.47;19.05;;;0.40;99.90;;;;;;4957524;29;20034;-67
2021/12/22 05:07:21;;;;;;;43.85;19.70;;;0.40;99.90;;;;;;4957229;29;20086;-67
2021/12/22 05:09:46;;;;;;;47.25;20.85;;;0.30;99.90;;;;;;4957874;29;20527;-67
2021/12/22 05:12:12;;;;;;;48.22;20.35;;;0.30;99.90;;;;;;4955928;29;20102;-66
2021/12/22 05:14:39;;;;;;;63.45;20.45;;;0.30;99.90;;;;;;4957479;29;20027;-67
2021/12/22 05:17:06;;;;;;;37.72;18.67;;;0.30;99.90;;;;;;4957224;29;20058;-67
2021/12/22 05:19:32;;;;;;;45.67;19.60;;;0.30;99.90;;;;;;4957413;29;20027;-67
2021/12/22 05:21:58;;;;;;;42.65;17.98;;;0.30;99.90;;;;;;4957004;29;20110;-66
2021/12/22 05:24:24;;;;;;;55.55;20.42;;;0.20;99.90;;;;;;4957420;29;20031;-66
2021/12/22 05:26:50;;;;;;;40.35;17.73;;;0.20;99.90;;;;;;4957003;29;20035;-66
2021/12/22 05:29:17;;;;;;;43.63;18.88;;;0.20;99.90;;;;;;4957084;29;20106;-67
2021/12/22 05:31:42;;;;;;;42.78;19.25;;;0.20;99.90;;;;;;4956880;29;20087;-66
2021/12/22 05:34:08;;;;;;;42.85;19.25;;;0.20;99.90;;;;;;4957268;29;20027;-67
2021/12/22 05:36:34;;;;;;;44.65;19.20;;;0.20;99.90;;;;;;4956724;29;20034;-67
2021/12/22 05:38:59;;;;;;;120.43;26.02;;;0.20;99.90;;;;;;4957165;29;20034;-67
2021/12/22 05:41:25;;;;;;;41.20;18.30;;;0.10;99.90;;;;;;4957105;29;20034;-67
2021/12/22 05:43:51;;;;;;;127.72;25.02;;;0.10;99.90;;;;;;4956888;29;20035;-67
2021/12/22 05:46:16;;;;;;;40.30;19.23;;;0.10;99.90;;;;;;4956830;29;20467;-67
2021/12/22 05:48:44;;;;;;;39.47;18.38;;;0.10;99.90;;;;;;4956652;29;20171;-66
2021/12/22 05:51:10;;;;;;;39.65;17.13;;;0.10;99.90;;;;;;4956819;29;20125;-67
2021/12/22 05:53:37;;;;;;;43.53;18.70;;;0.10;99.90;;;;;;4955526;29;20391;-67
2021/12/22 05:56:03;;;;;;;44.47;19.88;;;0.00;99.90;;;;;;4956463;28;20062;-67
2021/12/22 05:58:28;;;;;;;41.50;18.63;;;0.00;99.90;;;;;;4956618;29;20055;-66
2021/12/22 06:00:54;;;;;;;47.03;18.88;;;0.00;99.90;;;;;;4956819;29;20027;-66
2021/12/22 06:03:20;;;;;;;42.47;16.75;;;0.00;99.90;;;;;;4956657;29;20042;-66
2021/12/22 06:05:46;;;;;;;128.70;27.02;;;0.00;99.90;;;;;;4956574;29;20035;-67
2021/12/22 06:08:11;;;;;;;247.40;36.78;;;0.00;99.90;;;;;;4957043;29;20379;-66
2021/12/22 06:10:37;;;;;;;41.80;19.15;;;0.00;99.90;;;;;;4956858;29;20031;-67
2021/12/22 06:13:04;;;;;;;39.85;18.25;;;-0.10;99.90;;;;;;4956586;28;20043;-67
2021/12/22 06:15:31;;;;;;;39.78;18.45;;;-0.10;99.90;;;;;;4956177;29;20054;-67
2021/12/22 06:17:59;;;;;;;43.38;18.33;;;-0.10;99.90;;;;;;4956307;29;20035;-67
2021/12/22 06:20:25;;;;;;;44.22;19.17;;;-0.10;99.90;;;;;;4956157;28;20030;-67
2021/12/22 06:22:51;;;;;;;40.05;18.42;;;-0.10;99.90;;;;;;4956488;28;20113;-67
2021/12/22 06:25:17;;;;;;;38.65;18.42;;;-0.10;99.90;;;;;;4956445;29;20027;-67
2021/12/22 06:27:43;;;;;;;40.30;18.98;;;-0.10;99.90;;;;;;4955086;29;20078;-67
2021/12/22 06:30:09;;;;;;;44.33;19.52;;;-0.20;99.90;;;;;;4956061;29;20031;-67
2021/12/22 06:32:35;;;;;;;43.15;18.42;;;-0.20;99.90;;;;;;4956679;29;20031;-67
2021/12/22 06:35:01;;;;;;;43.30;19.65;;;-0.20;99.90;;;;;;4956121;29;20467;-67
2021/12/22 06:37:26;;;;;;;50.58;18.77;;;-0.20;99.90;;;;;;4956426;29;20035;-67
2021/12/22 06:39:52;;;;;;;42.85;17.17;;;-0.30;99.90;;;;;;4956062;29;20093;-67
2021/12/22 06:42:18;;;;;;;41.60;17.40;;;-0.30;99.90;;;;;;4955972;29;20055;-67
2021/12/22 06:44:43;;;;;;;38.28;17.60;;;-0.30;99.90;;;;;;4955886;29;20034;-67
2021/12/22 06:47:10;;;;;;;42.03;18.63;;;-0.30;99.90;;;;;;4955697;29;20031;-67
2021/12/22 06:49:37;;;;;;;38.95;18.05;;;-0.30;99.90;;;;;;4955513;29;20031;-67
2021/12/22 06:52:04;;;;;;;39.08;18.42;;;-0.30;99.90;;;;;;4955764;29;20039;-67
2021/12/22 06:54:30;;;;;;;79.05;21.60;;;-0.30;99.90;;;;;;4954574;29;20491;-67
2021/12/22 06:56:55;;;;;;;38.05;17.60;;;-0.30;99.90;;;;;;4955817;29;20027;-68
2021/12/22 06:59:21;;;;;;;46.45;21.42;;;-0.30;99.90;;;;;;4955693;28;20051;-67
2021/12/22 07:01:47;;;;;;;43.25;18.23;;;-0.30;99.90;;;;;;4955346;29;20113;-67
2021/12/22 07:04:13;;;;;;;47.78;17.73;;;-0.30;99.90;;;;;;4955277;29;20034;-67
2021/12/22 07:06:39;;;;;;;40.42;18.23;;;-0.40;99.90;;;;;;4955173;28;20035;-67
2021/12/22 07:09:06;;;;;;;87.25;21.50;;;-0.40;99.90;;;;;;4954941;29;20031;-67
2021/12/22 07:11:34;;;;;;;37.70;17.67;;;-0.40;99.90;;;;;;4955711;29;20119;-67
2021/12/22 07:14:01;;;;;;;41.90;18.25;;;-0.40;99.90;;;;;;4955201;29;20041;-67
2021/12/22 07:16:26;;;;;;;38.78;17.83;;;-0.40;99.90;;;;;;4954936;29;20063;-67
2021/12/22 07:18:53;;;;;;;99.07;21.38;;;-0.50;99.90;;;;;;4954980;29;20069;-67
2021/12/22 07:21:18;;;;;;;39.35;17.10;;;-0.50;99.90;;;;;;4955283;29;20046;-67
2021/12/22 07:23:44;;;;;;;38.70;17.40;;;-0.50;99.90;;;;;;4955343;29;20035;-67
2021/12/22 07:26:13;;;;;;;43.45;17.90;;;-0.40;99.90;;;;;;4955391;29;20118;-67
2021/12/22 07:28:40;;;;;;;51.75;19.63;;;-0.40;99.90;;;;;;4955054;29;20035;-67
2021/12/22 07:31:06;;;;;;;40.17;17.90;;;-0.50;99.90;;;;;;4955003;29;20058;-67
2021/12/22 07:33:32;;;;;;;41.22;18.25;;;-0.50;99.90;;;;;;4954784;29;20055;-67
2021/12/22 07:36:01;;;;;;;38.30;18.42;;;-0.50;99.90;;;;;;4954964;29;20078;-67
2021/12/22 07:38:31;;;;;;;55.17;18.58;;;-0.50;99.90;;;;;;4954993;29;20039;-67
2021/12/22 07:40:59;;;;;;;37.25;14.95;;;-0.50;99.90;;;;;;4954987;29;20035;-68
2021/12/22 07:43:27;;;;;;;42.38;18.13;;;-0.50;99.90;;;;;;4955066;29;20034;-67
2021/12/22 07:45:53;;;;;;;42.00;18.23;;;-0.40;99.90;;;;;;4954939;29;20603;-67
2021/12/22 07:48:19;;;;;;;39.97;17.67;;;-0.50;99.90;;;;;;4954834;29;20102;-67
2021/12/22 07:50:45;;;;;;;38.33;17.08;;;-0.50;99.90;;;;;;4954636;29;20114;-67
2021/12/22 07:53:11;;;;;;;45.65;18.50;;;-0.50;99.90;;;;;;4954817;29;20035;-67
2021/12/22 07:55:37;;;;;;;41.75;18.08;;;-0.40;99.90;;;;;;4954816;29;20035;-67
2021/12/22 07:58:02;;;;;;;49.58;17.05;;;-0.50;99.90;;;;;;4952636;28;20031;-67
2021/12/22 08:00:28;;;;;;;36.28;16.27;;;-0.50;99.90;;;;;;4950617;28;20411;-67
2021/12/22 08:02:54;;;;;;;36.13;17.58;;;-0.50;99.90;;;;;;4918164;29;20036;-67
2021/12/22 08:05:20;;;;;;;44.28;18.00;;;-0.50;99.90;;;;;;4934724;28;20028;-66
2021/12/22 08:07:46;;;;;;;39.50;17.40;;;-0.50;99.90;;;;;;4936889;29;20031;-67
2021/12/22 08:10:11;;;;;;;41.25;16.83;;;-0.50;99.90;;;;;;4954267;29;20066;-67
2021/12/22 08:12:37;;;;;;;83.50;22.85;;;-0.50;99.90;;;;;;4954055;29;20073;-67
2021/12/22 08:15:04;;;;;;;40.05;15.93;;;-0.50;99.90;;;;;;4954449;29;20475;-67
2021/12/22 08:17:32;;;;;;;40.95;16.98;;;-0.50;99.90;;;;;;4937032;29;20035;-67
2021/12/22 08:19:58;;;;;;;72.05;20.85;;;-0.40;99.90;;;;;;4957028;28;20125;-67
2021/12/22 08:22:24;;;;;;;43.53;20.60;;;-0.40;99.90;;;;;;4958342;29;20042;-67
2021/12/22 08:24:50;;;;;;;43.58;17.85;;;-0.40;99.90;;;;;;4941224;29;20027;-67
2021/12/22 08:27:18;;;;;;;45.25;17.55;;;-0.30;99.90;;;;;;4958075;29;20530;-67
2021/12/22 08:29:44;;;;;;;45.20;18.00;;;-0.30;99.90;;;;;;4958286;29;20114;-67
2021/12/22 08:32:11;;;;;;;43.30;19.88;;;-0.30;99.90;;;;;;4958080;29;20479;-67
2021/12/22 08:34:39;;;;;;;41.60;18.65;;;-0.20;99.90;;;;;;4957960;29;20031;-67
2021/12/22 08:39:51;;;;;;;39.45;16.80;;;-0.20;99.90;;;;;;4958064;29;20042;-67
2021/12/22 08:42:18;;;;;;;46.55;19.10;;;-0.10;99.90;;;;;;4957744;29;20423;-67
2021/12/22 08:44:43;;;;;;;41.30;18.30;;;-0.10;99.90;;;;;;4957845;29;20039;-67
2021/12/22 08:47:09;;;;;;;40.17;18.50;;;0.00;99.90;;;;;;4958256;29;20126;-67
2021/12/22 08:49:35;;;;;;;38.72;16.58;;;0.10;99.90;;;;;;4957796;29;20035;-66
2021/12/22 08:52:01;;;;;;;35.03;16.98;;;0.10;99.90;;;;;;4958104;29;20028;-67
2021/12/22 08:54:27;;;;;;;38.85;17.10;;;0.20;99.90;;;;;;4957654;29;20444;-66
2021/12/22 08:56:55;;;;;;;38.28;17.15;;;0.20;99.90;;;;;;4957929;29;20105;-67
2021/12/22 08:59:22;;;;;;;39.50;16.10;;;0.30;99.90;;;;;;4957691;29;20563;-67
2021/12/22 09:01:48;;;;;;;37.05;16.67;;;0.30;99.90;;;;;;4957432;29;20483;-67
2021/12/22 09:04:15;;;;;;;40.35;17.65;;;0.40;99.90;;;;;;4957544;29;20027;-68
2021/12/22 09:06:41;;;;;;;39.70;18.00;;;0.40;99.90;;;;;;4957801;29;20026;-67
2021/12/22 09:09:08;;;;;;;39.30;18.13;;;0.40;99.90;;;;;;4957288;29;20059;-67
2021/12/22 09:11:34;;;;;;;37.50;16.10;;;0.40;99.90;;;;;;4957539;29;20030;-67
2021/12/22 09:14:02;;;;;;;39.55;18.70;;;0.50;99.90;;;;;;4957295;29;20040;-68
2021/12/22 09:16:28;;;;;;;38.20;18.60;;;0.50;99.90;;;;;;4957702;29;20082;-68
2021/12/22 09:18:55;;;;;;;35.20;17.15;;;0.60;99.90;;;;;;4957342;29;20467;-68
2021/12/22 09:21:22;;;;;;;33.72;16.80;;;0.70;99.90;;;;;;4957373;29;20030;-68
2021/12/22 09:23:49;;;;;;;36.55;17.27;;;0.70;99.90;;;;;;4957364;29;20058;-67
2021/12/22 09:26:15;;;;;;;35.20;16.85;;;0.80;99.90;;;;;;4956972;29;20027;-68
2021/12/22 09:28:41;;;;;;;37.67;18.02;;;0.90;99.90;;;;;;4957187;29;20038;-68
2021/12/22 09:31:07;;;;;;;41.65;19.08;;;1.00;99.90;;;;;;4956084;28;20102;-67
2021/12/22 09:33:33;;;;;;;38.33;17.92;;;1.00;99.90;;;;;;4957037;29;20067;-67
2021/12/22 09:35:59;;;;;;;38.60;17.60;;;1.10;99.90;;;;;;4956949;29;20067;-67
2021/12/22 09:38:25;;;;;;;40.55;18.52;;;1.20;99.90;;;;;;4956953;29;20038;-68
2021/12/22 09:40:51;;;;;;;36.55;16.60;;;1.20;99.90;;;;;;4956914;29;20023;-67
2021/12/22 09:43:17;;;;;;;34.28;16.02;;;1.30;99.90;;;;;;4956995;29;20038;-67
2021/12/22 09:45:47;;;;;;;36.60;17.45;;;1.40;99.90;;;;;;4956992;29;20060;-67
2021/12/22 09:50:52;;;;;;;44.88;18.73;;;1.50;99.90;;;;;;4955855;28;20030;-68
2021/12/22 09:53:23;;;;;;;30.73;16.95;;;1.60;99.90;;;;;;4956745;29;20043;-68
2021/12/22 09:55:50;;;;;;;36.53;16.73;;;1.70;99.90;;;;;;4948159;28;20036;-67
2021/12/22 09:58:16;;;;;;;32.08;15.45;;;1.80;99.90;;;;;;4947576;28;20114;-68
2021/12/22 10:00:43;;;;;;;38.42;16.30;;;1.90;99.90;;;;;;4937559;29;20039;-67
2021/12/22 10:03:10;;;;;;;38.03;17.35;;;2.10;99.90;;;;;;4937180;29;20052;-67
2021/12/22 10:05:37;;;;;;;35.33;17.13;;;2.30;99.90;;;;;;4937452;29;20059;-68
2021/12/22 10:08:10;;;;;;;33.58;17.52;;;2.50;99.90;;;;;;4937390;29;20035;-67
2021/12/22 10:10:39;;;;;;;36.90;15.55;;;2.60;99.90;;;;;;4937267;29;20042;-67
2021/12/22 10:13:13;;;;;;;31.75;15.48;;;2.70;99.90;;;;;;4937293;29;20151;-68
2021/12/22 10:15:40;;;;;;;38.75;17.05;;;2.70;99.90;;;;;;4937591;29;20042;-68
2021/12/22 10:18:13;;;;;;;36.60;15.90;;;2.70;99.90;;;;;;4937605;29;20034;-68
2021/12/22 10:20:40;;;;;;;33.30;16.38;;;2.70;99.90;;;;;;4937297;29;20183;-67
2021/12/22 10:23:29;;;;;;;34.08;16.55;;;2.70;99.90;;;;;;4937061;29;20023;-68
2021/12/22 10:25:58;;;;;;;39.83;17.35;;;2.80;99.90;;;;;;4936727;29;20034;-68
2021/12/22 10:28:26;;;;;;;39.47;16.98;;;2.80;99.90;;;;;;4936851;29;20098;-67
2021/12/22 10:31:01;;;;;;;33.40;15.60;;;2.90;99.90;;;;;;4936915;29;20066;-67
2021/12/22 10:33:32;;;;;;;33.83;15.70;;;2.90;99.90;;;;;;4936662;29;20404;-68
2021/12/22 10:36:01;;;;;;;31.67;14.68;;;3.10;99.90;;;;;;4936854;29;20034;-68
2021/12/22 10:38:31;;;;;;;31.65;15.15;;;3.30;99.90;;;;;;4936083;29;20072;-67
2021/12/22 10:41:05;;;;;;;33.17;15.10;;;3.50;99.90;;;;;;4936752;29;20024;-68
2021/12/22 10:43:34;;;;;;;27.90;14.18;;;3.70;99.90;;;;;;4935412;29;20024;-68
2021/12/22 10:46:03;;;;;;;30.13;14.68;;;3.90;99.90;;;;;;4936788;29;20043;-68
2021/12/22 10:51:41;;;;;;;28.55;13.15;;;4.50;99.90;;;;;;4936404;29;20092;-68
2021/12/22 10:54:10;;;;;;;27.60;12.25;;;4.40;99.90;;;;;;4936380;29;20040;-68
2021/12/22 10:56:38;;;;;;;24.75;11.02;;;4.30;99.90;;;;;;4936118;29;20024;-68
2021/12/22 10:59:10;;;;;;;26.20;12.32;;;4.20;99.90;;;;;;4936174;29;20047;-68
2021/12/22 11:01:38;;;;;;;22.73;11.15;;;4.00;99.90;;;;;;4936286;29;20032;-68
2021/12/22 11:04:17;;;;;;;30.40;13.55;;;3.80;99.90;;;;;;4936200;29;20110;-68
2021/12/22 11:06:44;;;;;;;29.45;13.43;;;3.70;99.90;;;;;;4936265;29;20035;-69
2021/12/22 11:09:15;;;;;;;29.13;13.88;;;3.60;99.90;;;;;;4936251;29;20032;-69
2021/12/22 11:11:47;;;;;;;33.58;14.57;;;3.70;99.90;;;;;;4936427;29;20487;-67
2021/12/22 11:14:17;;;;;;;30.80;13.32;;;3.80;99.90;;;;;;4936017;29;20139;-67
2021/12/22 11:17:09;;;;;;;28.83;13.23;;;3.90;99.90;;;;;;4935039;29;20167;-68
2021/12/22 11:19:53;;;;;;;27.40;13.38;;;4.00;99.90;;;;;;4935004;29;20035;-68
2021/12/22 11:22:25;;;;;;;27.85;13.52;;;4.10;99.90;;;;;;4935585;29;20075;-68
2021/12/22 11:24:52;;;;;;;;;;;4.10;99.90;;;;;;4936327;29;20035;-69
2021/12/22 11:27:21;;;;;;;31.35;13.82;;;4.00;99.90;;;;;;4935842;29;19907;-68
2021/12/22 11:29:51;;;;;;;29.58;13.30;;;4.00;99.90;;;;;;4935798;29;20460;-68
2021/12/22 11:32:20;;;;;;;29.23;14.50;;;4.00;99.90;;;;;;4935880;29;20074;-68
2021/12/22 11:34:52;;;;;;;33.45;13.90;;;4.00;99.90;;;;;;4935646;29;20048;-69
2021/12/22 11:37:19;;;;;;;26.50;12.27;;;4.00;99.90;;;;;;4935634;29;20023;-69
2021/12/22 11:39:45;;;;;;;30.73;11.30;;;4.10;99.90;;;;;;4935927;29;20027;-68
2021/12/22 11:42:13;;;;;;;22.77;10.98;;;4.10;99.90;;;;;;4935707;29;20032;-69
2021/12/22 11:44:40;;;;;;;25.92;13.00;;;4.10;99.90;;;;;;4950416;29;20024;-69
2021/12/22 11:47:09;;;;;;;30.83;12.48;;;4.00;99.90;;;;;;4934278;29;20032;-68
2021/12/22 11:49:47;;;;;;;27.05;13.50;;;3.90;99.90;;;;;;4935161;29;20034;-68
2021/12/22 11:52:31;;;;;;;28.85;12.52;;;3.90;99.90;;;;;;4935486;29;20082;-68
2021/12/22 11:55:15;;;;;;;30.27;13.88;;;3.90;99.90;;;;;;4945476;28;20035;-69
2021/12/22 11:57:42;;;;;;;28.75;12.82;;;3.90;99.90;;;;;;4952745;29;20030;-71
2021/12/22 12:00:27;;;;;;;28.83;13.02;;;4.00;99.90;;;;;;4954266;28;20051;-68
2021/12/22 12:02:55;;;;;;;28.50;13.48;;;4.00;99.90;;;;;;4954117;29;20038;-68
2021/12/22 12:05:23;;;;;;;27.00;11.13;;;3.90;99.90;;;;;;4953809;28;20074;-70
2021/12/22 12:07:59;;;;;;;25.73;12.40;;;3.80;99.90;;;;;;4954053;29;20043;-69
2021/12/22 12:10:46;;;;;;;29.25;13.52;;;3.90;99.90;;;;;;4953473;28;20037;-71
2021/12/22 12:13:33;;;;;;;28.08;13.40;;;3.90;99.90;;;;;;4953599;29;20053;-69
2021/12/22 12:21:50;;;;;;;29.23;14.60;;;4.10;99.90;;;;;;4939841;29;20078;-72
2021/12/22 12:24:34;;;;;;;27.02;13.02;;;4.00;99.90;;;;;;4954016;28;20103;-72
2021/12/22 12:27:20;;;;;;;27.77;13.13;;;3.90;99.90;;;;;;4953546;29;20041;-70
2021/12/22 12:30:10;;;;;;;24.63;10.48;;;3.80;99.90;;;;;;4953730;28;20069;-73
2021/12/22 12:32:50;;;;;;;28.95;12.25;;;3.60;99.90;;;;;;4953733;29;20027;-72
2021/12/22 12:35:31;;;;;;;27.23;10.52;;;3.50;99.90;;;;;;4953466;28;20039;-70
2021/12/22 12:38:15;;;;;;;28.58;12.65;;;3.50;99.90;;;;;;4953618;29;20439;-72
2021/12/22 12:41:02;;;;;;;26.45;11.52;;;3.40;99.90;;;;;;4953848;28;20118;-72
2021/12/22 12:48:52;;;;;;;30.73;14.32;;;3.50;99.90;;;;;;4944670;28;20046;-72
2021/12/22 12:51:20;;;;;;;35.38;14.00;;;3.50;99.90;;;;;;4954014;28;20032;-73
2021/12/22 12:53:51;;;;;;;28.20;14.32;;;3.60;99.90;;;;;;4953658;28;20779;-73
2021/12/22 12:56:18;;;;;;;28.80;12.82;;;3.70;99.90;;;;;;4929665;29;20062;-74
2021/12/22 12:59:02;;;;;;;31.38;12.38;;;3.80;99.90;;;;;;4953234;28;20051;-74
2021/12/22 13:01:46;;;;;;;28.67;14.10;;;3.90;99.90;;;;;;4950812;29;20082;-74
2021/12/22 13:04:23;;;;;;;31.83;14.23;;;3.90;99.90;;;;;;4952789;28;20561;-75
2021/12/22 13:06:54;;;;;;;30.25;14.50;;;3.90;99.90;;;;;;4957440;29;20471;-75
2021/12/22 13:09:28;;;;;;;33.45;15.10;;;4.00;99.90;;;;;;4957268;29;20038;-75